Time;durP1;ratioP1;P1;durP2;ratioP2;P2;SDS_P1;SDS_P2;PMS_P1;PMS_P2;Temp;Humidity;BMP_temperature;BMP_pressure;BME280_temperature;BME280_humidity;BME280_pressure;Samples;Min_cycle;Max_cycle;Signal;HPM_P1;HPM_P2
2022/03/26 00:00:49;;;;;;;40.20;27.80;;;5.70;99.80;;;;;;5046947;28;20447;-65
2022/03/26 00:03:17;;;;;;;44.27;29.20;;;5.60;99.90;;;;;;5047184;28;20977;-65
2022/03/26 00:05:45;;;;;;;39.07;27.97;;;5.60;99.80;;;;;;5046248;28;20930;-65
2022/03/26 00:08:13;;;;;;;41.37;27.40;;;5.60;99.90;;;;;;5050048;28;20506;-65
2022/03/26 00:10:40;;;;;;;37.60;27.70;;;5.50;99.90;;;;;;5046506;28;20456;-66
2022/03/26 00:13:07;;;;;;;38.93;27.17;;;5.50;99.90;;;;;;5046630;28;20464;-65
2022/03/26 00:15:34;;;;;;;40.97;29.60;;;5.60;99.90;;;;;;5045344;28;20483;-65
2022/03/26 00:18:02;;;;;;;38.17;27.20;;;5.50;99.90;;;;;;5046911;28;20505;-65
2022/03/26 00:20:28;;;;;;;34.20;26.17;;;5.50;99.90;;;;;;5046267;28;20475;-64
2022/03/26 00:22:57;;;;;;;38.63;27.17;;;5.50;99.90;;;;;;5047122;28;20567;-65
2022/03/26 00:25:24;;;;;;;38.70;26.80;;;5.70;99.90;;;;;;5007301;28;1103645;-66
2022/03/26 00:27:50;;;;;;;39.57;27.87;;;5.60;99.90;;;;;;5047190;28;20248;-63
2022/03/26 00:30:17;;;;;;;42.50;30.00;;;5.60;99.90;;;;;;5046879;28;20452;-65
2022/03/26 00:32:44;;;;;;;42.87;29.33;;;5.50;99.90;;;;;;5040458;28;20478;-65
2022/03/26 00:35:11;;;;;;;40.63;27.30;;;5.50;99.90;;;;;;5046910;28;20820;-66
2022/03/26 00:37:40;;;;;;;38.40;26.90;;;5.70;99.90;;;;;;5046621;28;20450;-65
2022/03/26 00:40:10;;;;;;;38.70;27.33;;;5.70;99.90;;;;;;5046908;28;20564;-64
2022/03/26 00:42:37;;;;;;;40.10;27.77;;;5.70;99.90;;;;;;5044432;28;21084;-65
2022/03/26 00:45:04;;;;;;;34.80;24.60;;;5.70;99.90;;;;;;5043703;28;20531;-66
2022/03/26 00:47:31;;;;;;;38.63;27.13;;;5.50;99.90;;;;;;5046763;28;20440;-64
2022/03/26 00:49:57;;;;;;;47.33;28.43;;;5.40;99.90;;;;;;5047931;28;20527;-65
2022/03/26 00:52:24;;;;;;;41.67;27.43;;;5.40;99.90;;;;;;5044526;28;20495;-66
2022/03/26 00:54:51;;;;;;;41.67;27.57;;;5.40;99.90;;;;;;5047376;28;20530;-65
2022/03/26 00:57:19;;;;;;;35.17;27.30;;;5.30;99.90;;;;;;5047980;28;20484;-65
2022/03/26 00:59:46;;;;;;;38.77;26.33;;;5.30;99.90;;;;;;5048107;28;20455;-65
2022/03/26 01:02:13;;;;;;;43.27;28.20;;;5.40;99.90;;;;;;5048320;28;20468;-65
2022/03/26 01:04:40;;;;;;;41.37;29.97;;;5.50;99.90;;;;;;5048263;28;20455;-65
2022/03/26 01:07:07;;;;;;;42.10;27.77;;;5.40;99.90;;;;;;5052404;28;20447;-66
2022/03/26 01:09:35;;;;;;;39.70;28.10;;;5.50;99.90;;;;;;5051094;28;20463;-66
2022/03/26 01:12:02;;;;;;;37.23;26.23;;;5.40;99.90;;;;;;5051479;28;20578;-66
2022/03/26 01:14:30;;;;;;;43.00;27.87;;;5.30;99.90;;;;;;5050500;28;20911;-65
2022/03/26 01:16:57;;;;;;;41.00;27.80;;;5.20;99.90;;;;;;5052007;28;20583;-65
2022/03/26 01:19:24;;;;;;;39.90;28.20;;;5.00;99.90;;;;;;5051480;28;20466;-64
2022/03/26 01:21:51;;;;;;;37.20;27.80;;;4.90;99.90;;;;;;5051860;28;20467;-65
2022/03/26 01:24:18;;;;;;;41.20;28.30;;;4.90;99.90;;;;;;5051040;28;20539;-65
2022/03/26 01:26:45;;;;;;;35.83;26.47;;;4.80;99.90;;;;;;5051412;28;20459;-65
2022/03/26 01:29:12;;;;;;;40.97;27.60;;;4.80;99.90;;;;;;5051878;28;21017;-64
2022/03/26 01:31:40;;;;;;;40.37;26.60;;;4.70;99.90;;;;;;5052081;28;20475;-65
2022/03/26 01:34:07;;;;;;;37.70;25.17;;;4.70;99.90;;;;;;5051625;28;20828;-66
2022/03/26 01:36:34;;;;;;;36.80;26.90;;;4.60;99.90;;;;;;5051166;28;20479;-66
2022/03/26 01:39:01;;;;;;;38.40;25.80;;;4.60;99.90;;;;;;5051095;28;20452;-65
2022/03/26 01:41:28;;;;;;;35.70;23.77;;;4.70;99.90;;;;;;5050504;28;20583;-66
2022/03/26 01:43:55;;;;;;;39.33;24.30;;;4.90;99.90;;;;;;5051519;28;20447;-65
2022/03/26 01:46:22;;;;;;;39.47;27.50;;;5.00;99.90;;;;;;5050381;28;20475;-65
2022/03/26 01:48:51;;;;;;;41.70;26.83;;;4.90;99.90;;;;;;5051173;28;20459;-65
2022/03/26 01:51:19;;;;;;;42.50;26.90;;;4.80;99.90;;;;;;5050901;28;21053;-63
2022/03/26 01:53:48;;;;;;;43.50;27.83;;;4.90;99.90;;;;;;5051197;28;20448;-65
2022/03/26 01:56:16;;;;;;;42.10;27.77;;;4.90;99.90;;;;;;5050432;28;20500;-65
2022/03/26 01:58:44;;;;;;;39.73;27.17;;;5.00;99.90;;;;;;5050516;28;20973;-64
2022/03/26 02:01:11;;;;;;;41.67;28.00;;;5.00;99.90;;;;;;5050755;28;20555;-66
2022/03/26 02:03:38;;;;;;;36.77;24.63;;;4.90;99.90;;;;;;5050585;28;20455;-66
2022/03/26 02:06:06;;;;;;;32.50;23.63;;;4.90;99.90;;;;;;5050176;28;20448;-64
2022/03/26 02:08:33;;;;;;;36.77;25.30;;;4.80;99.90;;;;;;5050597;28;20545;-64
2022/03/26 02:11:01;;;;;;;38.67;25.80;;;4.70;99.90;;;;;;5050634;28;20535;-64
2022/03/26 02:13:48;;;;;;;46.43;29.30;;;4.60;99.90;;;;;;5050251;28;20480;-64
2022/03/26 02:16:15;;;;;;;32.07;23.23;;;4.60;99.90;;;;;;5049380;28;20484;-64
2022/03/26 02:18:42;;;;;;;39.57;26.80;;;4.60;99.90;;;;;;5052224;28;20463;-66
2022/03/26 02:21:10;;;;;;;38.50;26.60;;;4.60;99.90;;;;;;5051857;28;20519;-64
2022/03/26 02:23:37;;;;;;;39.93;26.30;;;4.60;99.90;;;;;;5052655;28;20879;-67
2022/03/26 02:26:04;;;;;;;40.90;26.37;;;4.60;99.90;;;;;;5051352;28;20456;-64
2022/03/26 02:28:32;;;;;;;38.70;27.80;;;4.60;99.90;;;;;;5052170;28;20448;-64
2022/03/26 02:30:59;;;;;;;39.90;27.17;;;4.60;99.90;;;;;;5051553;28;20447;-64
2022/03/26 02:33:26;;;;;;;39.47;25.17;;;4.60;99.90;;;;;;5051934;28;20964;-64
2022/03/26 02:35:52;;;;;;;35.40;23.53;;;4.60;99.90;;;;;;5051122;28;20488;-64
2022/03/26 02:38:23;;;;;;;36.93;24.03;;;4.50;99.90;;;;;;5052067;28;20470;-66
2022/03/26 02:40:51;;;;;;;41.00;26.13;;;4.40;99.90;;;;;;5051354;28;20451;-67
2022/03/26 02:43:18;;;;;;;39.60;26.90;;;4.30;99.90;;;;;;5052182;28;20452;-65
2022/03/26 02:45:44;;;;;;;38.23;26.83;;;4.30;99.90;;;;;;5051171;28;20485;-67
2022/03/26 02:48:12;;;;;;;42.03;27.83;;;4.40;99.90;;;;;;5050792;28;20988;-67
2022/03/26 02:50:39;;;;;;;40.97;25.97;;;4.40;99.90;;;;;;5050821;28;20456;-67
2022/03/26 02:53:06;;;;;;;37.30;26.00;;;4.40;99.90;;;;;;5051038;28;20456;-67
2022/03/26 02:55:35;;;;;;;38.93;26.90;;;4.30;99.90;;;;;;5058552;28;21027;-67
2022/03/26 02:58:02;;;;;;;41.10;27.50;;;4.30;99.90;;;;;;5051536;28;20533;-66
2022/03/26 03:00:29;;;;;;;37.33;27.40;;;4.20;99.90;;;;;;5051466;28;20447;-66
2022/03/26 03:02:56;;;;;;;39.80;25.13;;;4.10;99.90;;;;;;5051712;28;20464;-66
2022/03/26 03:05:23;;;;;;;39.20;26.57;;;4.00;99.90;;;;;;5050890;28;20448;-66
2022/03/26 03:07:50;;;;;;;38.90;25.53;;;4.00;99.90;;;;;;5051157;28;20456;-66
2022/03/26 03:10:18;;;;;;;39.43;25.43;;;4.10;99.90;;;;;;5051273;28;20459;-64
2022/03/26 03:12:47;;;;;;;40.77;27.17;;;4.10;99.90;;;;;;5051289;28;20529;-66
2022/03/26 03:15:15;;;;;;;39.63;27.13;;;4.20;99.90;;;;;;5050867;28;20451;-66
2022/03/26 03:17:42;;;;;;;40.37;26.50;;;4.20;99.90;;;;;;5051524;28;20945;-67
2022/03/26 03:20:10;;;;;;;37.20;25.87;;;4.30;99.90;;;;;;5051184;28;20534;-66
2022/03/26 03:22:38;;;;;;;38.23;25.70;;;4.20;99.90;;;;;;5051125;28;20933;-65
2022/03/26 03:25:06;;;;;;;40.50;25.43;;;4.20;99.90;;;;;;5050229;28;20910;-66
2022/03/26 03:27:33;;;;;;;38.27;25.10;;;4.20;99.90;;;;;;5050584;28;20463;-67
2022/03/26 03:30:01;;;;;;;43.13;27.40;;;4.20;99.90;;;;;;5050712;28;20475;-66
2022/03/26 03:32:28;;;;;;;40.70;26.17;;;4.20;99.90;;;;;;5051129;28;20482;-66
2022/03/26 03:34:55;;;;;;;37.50;26.30;;;4.20;99.90;;;;;;5050184;28;20467;-67
2022/03/26 03:37:23;;;;;;;39.00;27.80;;;4.10;99.90;;;;;;5050737;28;20515;-67
2022/03/26 03:39:50;;;;;;;40.60;27.47;;;4.10;99.90;;;;;;5050219;28;20456;-66
2022/03/26 03:42:17;;;;;;;39.63;25.60;;;4.00;99.90;;;;;;5050769;28;20474;-66
2022/03/26 03:44:44;;;;;;;40.00;26.63;;;3.90;99.90;;;;;;5050744;28;20480;-66
2022/03/26 03:47:12;;;;;;;38.47;26.93;;;3.90;99.90;;;;;;5050816;28;20444;-66
2022/03/26 03:49:39;;;;;;;36.30;24.97;;;3.90;99.90;;;;;;5050485;28;20464;-67
2022/03/26 03:52:06;;;;;;;44.77;29.53;;;3.80;99.90;;;;;;5050813;28;20554;-67
2022/03/26 03:54:33;;;;;;;40.43;27.40;;;3.70;99.90;;;;;;5049816;28;20444;-65
2022/03/26 03:57:00;;;;;;;39.83;27.37;;;3.70;99.90;;;;;;5050443;28;20487;-66
2022/03/26 03:59:27;;;;;;;37.93;26.97;;;3.70;99.90;;;;;;5050041;28;20531;-66
2022/03/26 04:01:53;;;;;;;37.30;25.83;;;3.60;99.90;;;;;;5050198;28;20525;-66
2022/03/26 04:04:22;;;;;;;38.33;24.80;;;3.50;99.90;;;;;;5049688;28;20488;-67
2022/03/26 04:06:48;;;;;;;40.27;27.00;;;3.30;99.90;;;;;;5049750;28;20450;-66
2022/03/26 04:09:15;;;;;;;42.87;26.90;;;3.30;99.90;;;;;;5050071;28;20444;-66
2022/03/26 04:11:42;;;;;;;37.60;26.73;;;3.10;99.90;;;;;;5050041;28;20475;-66
2022/03/26 04:14:09;;;;;;;41.03;27.00;;;3.10;99.90;;;;;;5049438;28;20447;-65
2022/03/26 04:16:36;;;;;;;39.87;28.60;;;3.00;99.90;;;;;;5049838;28;20951;-64
2022/03/26 04:19:02;;;;;;;43.00;27.60;;;3.00;99.90;;;;;;5050092;28;20542;-65
2022/03/26 04:21:31;;;;;;;39.73;27.67;;;3.10;99.90;;;;;;5049350;28;20491;-66
2022/03/26 04:23:57;;;;;;;38.60;25.53;;;3.10;99.90;;;;;;5049990;28;20454;-66
2022/03/26 04:26:24;;;;;;;46.67;29.10;;;3.20;99.90;;;;;;5049107;28;20913;-66
2022/03/26 04:28:51;;;;;;;43.83;29.17;;;3.10;99.90;;;;;;5049967;28;20534;-66
2022/03/26 04:31:18;;;;;;;44.03;27.90;;;3.10;99.90;;;;;;5049507;28;20923;-65
2022/03/26 04:33:45;;;;;;;42.97;26.80;;;3.10;99.90;;;;;;5049998;28;20540;-67
2022/03/26 04:36:11;;;;;;;41.83;27.73;;;3.10;99.90;;;;;;5049428;28;20547;-66
2022/03/26 04:38:40;;;;;;;41.00;28.40;;;3.10;99.90;;;;;;5049683;28;20448;-66
2022/03/26 04:41:09;;;;;;;42.27;26.87;;;3.00;99.90;;;;;;5049461;28;20521;-66
2022/03/26 04:43:35;;;;;;;41.10;26.03;;;3.00;99.90;;;;;;5049673;28;20509;-68
2022/03/26 04:46:02;;;;;;;44.47;27.17;;;3.00;99.90;;;;;;5049092;28;20449;-66
2022/03/26 04:48:29;;;;;;;47.40;27.93;;;2.90;99.90;;;;;;5049762;28;20455;-65
2022/03/26 04:50:56;;;;;;;42.73;27.23;;;2.90;99.90;;;;;;5049565;28;20444;-66
2022/03/26 04:53:23;;;;;;;41.80;27.23;;;2.90;99.90;;;;;;5049597;28;20460;-66
2022/03/26 04:55:51;;;;;;;42.57;29.53;;;2.80;99.90;;;;;;5048717;28;20832;-67
2022/03/26 04:58:19;;;;;;;37.77;26.17;;;2.70;99.90;;;;;;5049602;28;20480;-66
2022/03/26 05:00:46;;;;;;;41.03;28.27;;;2.70;99.90;;;;;;5049132;28;20455;-67
2022/03/26 05:03:13;;;;;;;38.57;25.60;;;2.70;99.90;;;;;;5049590;28;21192;-66
2022/03/26 05:05:39;;;;;;;48.73;29.53;;;2.60;99.90;;;;;;5049332;28;20546;-66
2022/03/26 05:08:07;;;;;;;42.10;27.07;;;2.70;99.90;;;;;;5050072;28;20444;-66
2022/03/26 05:10:33;;;;;;;42.60;28.00;;;2.70;99.90;;;;;;5049443;28;20535;-66
2022/03/26 05:13:02;;;;;;;43.00;26.13;;;2.60;99.90;;;;;;5049696;28;20464;-66
2022/03/26 05:15:29;;;;;;;36.77;25.90;;;2.60;99.90;;;;;;5049198;28;20539;-67
2022/03/26 05:17:57;;;;;;;41.00;27.27;;;2.60;99.90;;;;;;5049922;28;20480;-67
2022/03/26 05:20:24;;;;;;;40.03;26.77;;;2.70;99.90;;;;;;5049283;28;20799;-65
2022/03/26 05:22:52;;;;;;;41.63;26.40;;;2.60;99.90;;;;;;5049511;28;20483;-64
2022/03/26 05:25:19;;;;;;;44.77;27.40;;;2.50;99.90;;;;;;5048669;28;20544;-66
2022/03/26 05:27:47;;;;;;;42.03;28.63;;;2.60;99.90;;;;;;5049248;28;20531;-63
2022/03/26 05:30:16;;;;;;;41.33;27.80;;;2.60;99.90;;;;;;5048728;28;20539;-65
2022/03/26 05:32:43;;;;;;;45.00;27.23;;;2.50;99.90;;;;;;5049538;28;20482;-66
2022/03/26 05:35:13;;;;;;;41.33;27.93;;;2.40;99.90;;;;;;5048451;28;20479;-65
2022/03/26 05:37:41;;;;;;;46.83;28.80;;;2.50;99.90;;;;;;5049212;28;21223;-65
2022/03/26 05:40:09;;;;;;;39.13;28.10;;;2.50;99.90;;;;;;5048892;28;20535;-64
2022/03/26 05:42:36;;;;;;;41.27;28.37;;;2.50;99.90;;;;;;5048991;28;20559;-65
2022/03/26 05:45:03;;;;;;;43.13;28.37;;;2.50;99.90;;;;;;5048263;28;20456;-65
2022/03/26 05:47:32;;;;;;;45.27;28.73;;;2.60;99.90;;;;;;5049258;28;20448;-64
2022/03/26 05:49:58;;;;;;;39.57;27.17;;;2.60;99.90;;;;;;5049030;28;20566;-65
2022/03/26 05:52:25;;;;;;;42.40;27.20;;;2.70;99.90;;;;;;5052476;28;21008;-66
2022/03/26 05:54:52;;;;;;;41.27;26.67;;;2.80;99.90;;;;;;5051130;28;21001;-65
2022/03/26 05:57:19;;;;;;;43.60;28.70;;;2.80;99.90;;;;;;5049545;28;21079;-65
2022/03/26 05:59:47;;;;;;;43.20;27.60;;;2.80;99.90;;;;;;5052007;28;20610;-65
2022/03/26 06:02:14;;;;;;;41.00;27.53;;;2.90;99.90;;;;;;5061320;28;20841;-65
2022/03/26 06:04:42;;;;;;;45.20;29.97;;;2.90;99.90;;;;;;5051532;28;20443;-67
2022/03/26 06:07:09;;;;;;;46.60;28.03;;;3.00;99.90;;;;;;5052456;28;20452;-65
2022/03/26 06:09:36;;;;;;;41.53;28.47;;;3.10;99.90;;;;;;5051847;28;20451;-65
2022/03/26 06:12:03;;;;;;;43.37;27.07;;;3.20;99.90;;;;;;5052214;28;20468;-67
2022/03/26 06:14:30;;;;;;;44.30;27.60;;;3.30;99.90;;;;;;5051485;28;20850;-66
2022/03/26 06:16:57;;;;;;;42.03;28.37;;;3.30;99.90;;;;;;5052224;28;20534;-65
2022/03/26 06:19:26;;;;;;;42.33;28.00;;;3.40;99.90;;;;;;5051799;28;20506;-65
2022/03/26 06:21:54;;;;;;;46.27;30.10;;;3.50;99.90;;;;;;5052235;28;20475;-64
2022/03/26 06:24:21;;;;;;;44.77;30.00;;;3.50;99.90;;;;;;5051185;28;21009;-65
2022/03/26 06:26:48;;;;;;;40.97;27.90;;;3.70;99.90;;;;;;5051931;28;20463;-65
2022/03/26 06:29:16;;;;;;;44.13;30.07;;;3.60;99.90;;;;;;5051937;28;20812;-66
2022/03/26 06:31:44;;;;;;;44.83;28.33;;;3.70;99.90;;;;;;5051442;28;20466;-65
2022/03/26 06:34:11;;;;;;;43.93;30.43;;;3.90;99.90;;;;;;5050850;28;20877;-65
2022/03/26 06:36:39;;;;;;;46.40;30.23;;;3.90;99.90;;;;;;5051573;28;20459;-64
2022/03/26 06:39:08;;;;;;;44.57;30.77;;;4.10;99.90;;;;;;5051403;28;20495;-65
2022/03/26 06:41:38;;;;;;;48.50;29.77;;;4.10;99.90;;;;;;5051394;28;20500;-65
2022/03/26 06:44:06;;;;;;;40.43;28.03;;;4.20;99.90;;;;;;5051289;28;20531;-66
2022/03/26 06:46:33;;;;;;;53.30;29.00;;;4.40;99.90;;;;;;5051585;28;20454;-65
2022/03/26 06:49:00;;;;;;;43.20;29.43;;;4.60;99.90;;;;;;5051768;28;20451;-66
2022/03/26 06:51:26;;;;;;;47.07;30.10;;;4.70;99.90;;;;;;5051439;28;20468;-64
2022/03/26 06:53:53;;;;;;;43.83;29.83;;;4.80;99.90;;;;;;5051572;28;20449;-65
2022/03/26 06:56:21;;;;;;;38.67;28.40;;;4.90;99.90;;;;;;5050752;28;20556;-65
2022/03/26 06:58:48;;;;;;;46.20;30.13;;;5.00;99.90;;;;;;5051575;28;20483;-65
2022/03/26 07:01:15;;;;;;;45.10;29.00;;;5.20;99.90;;;;;;5050405;28;20885;-67
2022/03/26 07:03:42;;;;;;;45.47;29.10;;;5.30;99.90;;;;;;5050427;28;20474;-66
2022/03/26 07:06:09;;;;;;;42.27;29.30;;;5.40;99.90;;;;;;5050242;28;20974;-65
2022/03/26 07:08:36;;;;;;;40.50;29.57;;;5.50;99.90;;;;;;5051175;28;20453;-66
2022/03/26 07:11:03;;;;;;;45.27;31.37;;;5.70;99.90;;;;;;5050735;28;20539;-66
2022/03/26 07:13:31;;;;;;;38.53;29.53;;;5.70;99.90;;;;;;5051353;28;20452;-66
2022/03/26 07:15:58;;;;;;;38.97;29.27;;;5.90;99.90;;;;;;5050335;28;20448;-66
2022/03/26 07:18:25;;;;;;;40.73;28.97;;;6.10;99.90;;;;;;5055539;28;20542;-66
2022/03/26 07:20:57;;;;;;;47.33;30.80;;;6.20;99.90;;;;;;5054388;28;20448;-66
2022/03/26 07:23:23;;;;;;;43.13;29.87;;;6.40;99.90;;;;;;5051227;28;20440;-64
2022/03/26 07:25:50;;;;;;;41.00;28.40;;;6.50;99.90;;;;;;5050251;28;20460;-66
2022/03/26 07:28:17;;;;;;;39.90;29.13;;;6.70;99.90;;;;;;5051047;28;20439;-64
2022/03/26 07:30:45;;;;;;;39.60;28.00;;;6.80;99.90;;;;;;5050924;28;20498;-64
2022/03/26 07:33:12;;;;;;;40.37;28.40;;;7.00;99.90;;;;;;5051397;28;20961;-65
2022/03/26 07:35:39;;;;;;;41.67;30.67;;;7.20;99.90;;;;;;5051860;28;20556;-66
2022/03/26 07:38:06;;;;;;;33.87;25.80;;;7.50;99.90;;;;;;5051287;28;20489;-65
2022/03/26 07:40:33;;;;;;;35.53;26.63;;;7.60;99.90;;;;;;5051002;28;20451;-65
2022/03/26 07:43:00;;;;;;;35.10;26.00;;;7.80;99.90;;;;;;5050813;28;20464;-66
2022/03/26 07:45:27;;;;;;;34.83;25.23;;;7.90;99.90;;;;;;5049638;28;20450;-66
2022/03/26 07:47:56;;;;;;;39.60;25.90;;;8.00;99.90;;;;;;5050415;28;20883;-66
2022/03/26 07:50:23;;;;;;;33.57;25.20;;;8.20;99.90;;;;;;5050400;28;20443;-64
2022/03/26 07:52:50;;;;;;;37.93;24.87;;;8.40;99.90;;;;;;5049770;28;20514;-66
2022/03/26 07:55:17;;;;;;;35.40;25.40;;;8.60;99.90;;;;;;5049378;28;20930;-66
2022/03/26 07:57:43;;;;;;;32.77;26.23;;;8.70;99.90;;;;;;5050168;28;20562;-66
2022/03/26 08:00:12;;;;;;;32.67;23.97;;;8.80;99.90;;;;;;5049952;28;21010;-65
2022/03/26 08:02:38;;;;;;;32.63;24.17;;;8.90;99.90;;;;;;5050403;28;20472;-65
2022/03/26 08:05:08;;;;;;;31.73;23.67;;;8.90;99.90;;;;;;5049570;28;20443;-66
2022/03/26 08:07:34;;;;;;;33.20;23.17;;;9.10;99.90;;;;;;5050071;28;20452;-65
2022/03/26 08:10:01;;;;;;;34.37;24.87;;;9.30;99.90;;;;;;5049728;28;20443;-66
2022/03/26 08:12:28;;;;;;;32.53;23.73;;;9.40;99.90;;;;;;5049885;28;20555;-65
2022/03/26 08:14:55;;;;;;;30.30;24.93;;;9.60;99.90;;;;;;5049011;28;20444;-68
2022/03/26 08:17:22;;;;;;;32.80;24.13;;;9.70;99.90;;;;;;5054515;28;20463;-65
2022/03/26 08:19:50;;;;;;;30.87;22.33;;;9.70;99.90;;;;;;5049673;28;20444;-66
2022/03/26 08:22:18;;;;;;;33.57;23.50;;;9.90;99.90;;;;;;5050020;28;20472;-66
2022/03/26 08:24:45;;;;;;;32.10;24.77;;;9.90;99.90;;;;;;5049058;28;20447;-67
2022/03/26 08:27:11;;;;;;;31.03;24.37;;;10.10;99.90;;;;;;5050081;28;20455;-68
2022/03/26 08:29:38;;;;;;;33.97;26.07;;;10.40;99.90;;;;;;5049604;28;21052;-64
2022/03/26 08:32:07;;;;;;;29.97;22.63;;;10.60;99.80;;;;;;5046464;28;20475;-65
2022/03/26 08:34:34;;;;;;;35.47;25.67;;;10.80;98.70;;;;;;5044643;28;20456;-66
2022/03/26 08:37:00;;;;;;;33.00;24.33;;;10.90;97.50;;;;;;5042105;28;20451;-65
2022/03/26 08:39:29;;;;;;;29.20;22.07;;;11.00;97.90;;;;;;5042419;28;20477;-65
2022/03/26 08:41:55;;;;;;;36.37;23.90;;;11.20;98.00;;;;;;5043734;28;20463;-65
2022/03/26 08:44:22;;;;;;;36.10;25.50;;;11.30;97.50;;;;;;5049145;28;20541;-66
2022/03/26 08:46:49;;;;;;;34.57;25.10;;;11.50;97.60;;;;;;5049596;28;20479;-66
2022/03/26 08:49:16;;;;;;;29.77;23.20;;;11.70;96.70;;;;;;5049791;28;20535;-66
2022/03/26 08:51:43;;;;;;;31.10;23.63;;;11.90;95.90;;;;;;5048974;28;21032;-66
2022/03/26 08:54:10;;;;;;;36.07;25.13;;;12.00;96.50;;;;;;5060610;28;20459;-66
2022/03/26 08:56:39;;;;;;;34.70;25.43;;;12.10;94.60;;;;;;5062267;28;20444;-66
2022/03/26 08:59:05;;;;;;;34.17;24.87;;;12.20;93.70;;;;;;5065173;28;20577;-66
2022/03/26 09:01:32;;;;;;;34.80;25.90;;;12.20;93.80;;;;;;5063625;28;20438;-66
2022/03/26 09:03:59;;;;;;;32.37;25.03;;;12.40;94.00;;;;;;5063546;28;20534;-66
2022/03/26 09:06:26;;;;;;;33.90;25.17;;;12.70;93.60;;;;;;5063906;28;20462;-65
2022/03/26 09:08:53;;;;;;;29.63;25.60;;;12.90;92.60;;;;;;5062788;28;20451;-65
2022/03/26 09:11:20;;;;;;;34.30;26.10;;;13.10;92.90;;;;;;5063355;28;20458;-65
2022/03/26 09:13:48;;;;;;;35.43;26.17;;;13.40;91.60;;;;;;5063178;28;20529;-65
2022/03/26 09:16:15;;;;;;;30.80;24.30;;;13.40;91.10;;;;;;5063274;28;20472;-67
2022/03/26 09:18:42;;;;;;;32.97;25.13;;;13.70;91.50;;;;;;5064498;28;20487;-65
2022/03/26 09:21:08;;;;;;;32.70;24.07;;;14.10;89.80;;;;;;5062912;28;20477;-65
2022/03/26 09:23:35;;;;;;;35.50;26.50;;;14.40;86.70;;;;;;5064602;28;20451;-66
2022/03/26 09:26:04;;;;;;;34.37;26.37;;;14.50;84.80;;;;;;5065881;28;20953;-66
2022/03/26 09:28:31;;;;;;;35.67;25.70;;;14.60;85.70;;;;;;5067488;28;20466;-66
2022/03/26 09:30:59;;;;;;;35.40;25.90;;;14.90;87.80;;;;;;5066593;28;20449;-66
2022/03/26 09:33:26;;;;;;;31.97;25.17;;;15.40;87.10;;;;;;5061518;28;20454;-66
2022/03/26 09:35:52;;;;;;;29.53;25.10;;;15.70;81.90;;;;;;5064494;28;20841;-67
2022/03/26 09:38:19;;;;;;;35.50;28.57;;;16.10;85.30;;;;;;5068028;28;20486;-66
2022/03/26 09:40:46;;;;;;;37.53;27.13;;;16.40;79.30;;;;;;5058451;28;20538;-66
2022/03/26 09:43:14;;;;;;;32.37;25.50;;;16.80;76.90;;;;;;5053110;28;20464;-66
2022/03/26 09:45:41;;;;;;;32.40;27.40;;;16.90;77.50;;;;;;5054444;28;20870;-67
2022/03/26 09:48:10;;;;;;;32.70;27.30;;;16.80;74.30;;;;;;5061600;28;20474;-66
2022/03/26 09:50:41;;;;;;;33.67;26.93;;;17.00;75.00;;;;;;5063258;28;20446;-66
2022/03/26 09:53:11;;;;;;;33.53;26.87;;;16.80;73.00;;;;;;5066238;28;20459;-66
2022/03/26 09:55:39;;;;;;;35.40;27.10;;;17.20;73.10;;;;;;5061847;28;20479;-67
2022/03/26 09:58:06;;;;;;;40.33;27.20;;;17.40;70.00;;;;;;5058848;28;20459;-66
2022/03/26 10:00:33;;;;;;;36.13;28.60;;;17.70;71.50;;;;;;5063551;28;20446;-66
2022/03/26 10:03:00;;;;;;;33.77;27.40;;;17.30;69.40;;;;;;5066006;28;20466;-67
2022/03/26 10:05:35;;;;;;;36.10;27.93;;;17.20;72.20;;;;;;5065816;28;20817;-67
2022/03/26 10:08:20;;;;;;;36.37;27.17;;;17.40;69.40;;;;;;5066913;28;20482;-66
2022/03/26 10:10:48;;;;;;;34.67;26.47;;;17.80;71.30;;;;;;5055768;28;20464;-66
2022/03/26 10:13:34;;;;;;;35.83;28.37;;;18.30;67.70;;;;;;5058714;28;20456;-66
2022/03/26 10:16:02;;;;;;;35.77;27.53;;;18.20;65.50;;;;;;5049377;28;20468;-65
2022/03/26 10:18:35;;;;;;;31.60;26.90;;;18.10;69.80;;;;;;5047161;28;20484;-66
2022/03/26 10:21:03;;;;;;;36.17;26.87;;;18.50;67.30;;;;;;5043716;28;20454;-64
2022/03/26 10:23:32;;;;;;;31.50;26.63;;;18.60;67.60;;;;;;5052368;28;20451;-69
2022/03/26 10:26:09;;;;;;;36.63;28.30;;;19.00;67.80;;;;;;5051441;28;20452;-71
2022/03/26 10:28:36;;;;;;;33.37;26.70;;;19.20;60.90;;;;;;5052147;28;20464;-70
2022/03/26 10:34:08;;;;;;;41.23;27.73;;;19.30;62.10;;;;;;5048218;28;20432;-68
2022/03/26 10:36:38;;;;;;;40.07;26.63;;;19.40;63.40;;;;;;5045274;28;20470;-68
2022/03/26 10:39:06;;;;;;;34.07;27.33;;;19.90;64.20;;;;;;5044697;28;20486;-66
2022/03/26 10:41:34;;;;;;;33.40;26.97;;;20.30;64.80;;;;;;5047666;28;21013;-69
2022/03/26 10:44:10;;;;;;;34.13;28.00;;;20.70;61.20;;;;;;5047170;28;20992;-71
2022/03/26 10:46:48;;;;;;;35.57;28.53;;;21.10;58.10;;;;;;5047990;28;20536;-68
2022/03/26 10:49:25;;;;;;;32.63;27.83;;;21.50;58.90;;;;;;5046074;28;20454;-68
2022/03/26 10:51:54;;;;;;;124.60;45.33;;;21.90;57.50;;;;;;5043191;28;20471;-69
2022/03/26 10:54:29;;;;;;;36.13;28.47;;;22.20;59.10;;;;;;5042265;28;21174;-68
2022/03/26 10:56:59;;;;;;;30.93;26.70;;;22.60;55.10;;;;;;5044239;28;20447;-68
2022/03/26 10:59:26;;;;;;;30.47;24.90;;;22.20;51.90;;;;;;5043372;28;20484;-69
2022/03/26 11:01:53;;;;;;;61.07;27.70;;;21.60;49.60;;;;;;5048084;28;20472;-68
2022/03/26 11:04:23;;;;;;;30.13;26.57;;;21.10;52.90;;;;;;5050515;28;20448;-69
2022/03/26 11:06:50;;;;;;;29.33;21.80;;;21.80;51.90;;;;;;5051193;28;21014;-69
2022/03/26 11:09:20;;;;;;;25.50;22.30;;;22.00;52.00;;;;;;5045966;28;20539;-69
2022/03/26 11:11:49;;;;;;;26.67;22.63;;;22.30;51.00;;;;;;5043278;28;20547;-68
2022/03/26 11:14:21;;;;;;;29.37;23.43;;;22.80;50.00;;;;;;5045586;28;20459;-69
2022/03/26 11:17:02;;;;;;;28.63;22.27;;;22.80;49.90;;;;;;5050933;28;20574;-68
2022/03/26 11:19:41;;;;;;;25.57;22.27;;;23.20;50.90;;;;;;5041284;28;20515;-68
2022/03/26 11:22:31;;;;;;;23.70;21.30;;;23.40;45.30;;;;;;5041883;28;20471;-68
2022/03/26 11:25:34;;;;;;;25.90;21.37;;;22.70;46.80;;;;;;5049870;28;20962;-69
2022/03/26 11:28:16;;;;;;;25.20;21.70;;;23.10;48.10;;;;;;5037103;28;20460;-70
2022/03/26 11:30:50;;;;;;;27.07;22.87;;;23.20;47.00;;;;;;5041595;28;20443;-68
2022/03/26 11:33:19;;;;;;;28.10;22.53;;;22.00;47.20;;;;;;5042960;28;21062;-70
2022/03/26 11:35:57;;;;;;;25.00;22.20;;;20.70;48.00;;;;;;5041972;28;20451;-68
2022/03/26 11:38:24;;;;;;;23.67;21.03;;;20.50;49.40;;;;;;5046653;28;20440;-68
2022/03/26 11:40:53;;;;;;;27.03;22.03;;;20.70;50.10;;;;;;5046479;28;20455;-68
2022/03/26 11:43:52;;;;;;;27.47;20.63;;;20.70;50.00;;;;;;5044718;28;20450;-69
2022/03/26 11:52:14;;;;;;;24.30;19.60;;;20.70;47.80;;;;;;5042353;28;20980;-69
2022/03/26 11:54:41;;;;;;;26.07;20.40;;;20.80;49.30;;;;;;5040856;28;20458;-69
2022/03/26 11:57:09;;;;;;;30.60;21.50;;;21.40;48.20;;;;;;5039953;28;20965;-68
2022/03/26 11:59:38;;;;;;;26.53;21.90;;;21.40;48.00;;;;;;5039772;28;20475;-68
2022/03/26 12:02:18;;;;;;;25.50;20.60;;;21.50;47.20;;;;;;5041369;28;20455;-69
2022/03/26 12:04:58;;;;;;;23.07;19.33;;;21.90;46.30;;;;;;5040279;28;21126;-70
2022/03/26 12:07:29;;;;;;;22.53;19.20;;;21.50;47.10;;;;;;5055233;28;20543;-70
2022/03/26 12:10:09;;;;;;;25.83;20.63;;;22.50;49.00;;;;;;5051975;28;20455;-72
2022/03/26 12:12:50;;;;;;;24.50;21.20;;;23.70;47.80;;;;;;5061685;28;20542;-69
2022/03/26 12:15:34;;;;;;;23.40;20.67;;;24.10;45.50;;;;;;5065053;28;20443;-68
2022/03/26 12:18:12;;;;;;;31.20;20.93;;;24.50;46.10;;;;;;5060448;28;20458;-68
2022/03/26 12:20:42;;;;;;;22.40;19.30;;;25.40;45.80;;;;;;5060416;28;20579;-70
2022/03/26 12:23:12;;;;;;;24.20;19.73;;;25.20;43.00;;;;;;5063963;28;20550;-68
2022/03/26 12:25:49;;;;;;;23.13;20.40;;;24.30;42.10;;;;;;5062415;28;20546;-68
2022/03/26 12:28:18;;;;;;;26.47;20.47;;;23.50;43.20;;;;;;5065320;28;20431;-69
2022/03/26 12:30:51;;;;;;;23.00;19.90;;;23.30;43.80;;;;;;5057335;28;20570;-68
2022/03/26 12:33:21;;;;;;;22.00;19.40;;;24.20;45.50;;;;;;5053930;28;20493;-69
2022/03/26 12:35:50;;;;;;;24.67;20.07;;;24.60;42.20;;;;;;5052520;28;20564;-70
2022/03/26 12:38:18;;;;;;;21.70;18.23;;;24.40;42.10;;;;;;5061113;28;20833;-69
2022/03/26 12:40:52;;;;;;;20.77;17.33;;;24.20;43.30;;;;;;5047942;28;20517;-68
2022/03/26 12:43:21;;;;;;;20.80;17.27;;;24.60;44.10;;;;;;5049480;28;20443;-68
2022/03/26 12:45:48;;;;;;;21.93;18.30;;;25.10;42.30;;;;;;5049447;28;20452;-68
2022/03/26 12:48:16;;;;;;;24.63;18.53;;;23.20;39.30;;;;;;5049922;28;20459;-68